Time;durP1;ratioP1;P1;durP2;ratioP2;P2;SDS_P1;SDS_P2;PMS_P1;PMS_P2;Temp;Humidity;BMP_temperature;BMP_pressure;BME280_temperature;BME280_humidity;BME280_pressure;Samples;Min_cycle;Max_cycle;Signal;HPM_P1;HPM_P2
2022/03/04 00:02:05;;;;;;;31.17;15.75;;;;;;;1.56;50.67;99792.81;4392651;32;34321;-61
2022/03/04 00:04:37;;;;;;;29.63;14.98;;;;;;;1.82;50.78;99790.53;4393404;32;34438;-61
2022/03/04 00:07:05;;;;;;;33.05;15.90;;;;;;;3.38;47.17;99800.59;4393102;32;33995;-61
2022/03/04 00:09:33;;;;;;;35.15;18.45;;;;;;;3.71;45.25;99795.37;4392502;32;34278;-61
2022/03/04 00:12:03;;;;;;;41.00;18.73;;;;;;;2.50;46.89;99794.97;4392572;32;33394;-61
2022/03/04 00:14:31;;;;;;;49.10;21.50;;;;;;;1.99;48.96;99790.19;4392252;32;33587;-61
2022/03/04 00:16:58;;;;;;;51.83;22.17;;;;;;;1.46;50.43;99799.59;4391089;32;32180;-61
2022/03/04 00:19:26;;;;;;;47.67;21.62;;;;;;;1.53;51.34;99801.88;4378309;32;33569;-61
2022/03/04 00:21:53;;;;;;;49.60;24.00;;;;;;;2.56;48.55;99803.13;4392970;32;33326;-61
2022/03/04 00:24:22;;;;;;;46.78;23.73;;;;;;;2.14;49.39;99796.50;4391928;32;32636;-61
2022/03/04 00:26:50;;;;;;;46.58;22.35;;;;;;;3.09;47.63;99801.91;4389266;32;33931;-61
2022/03/04 00:29:18;;;;;;;44.65;21.90;;;;;;;1.83;49.92;99792.31;4390102;32;33980;-62
2022/03/04 00:31:46;;;;;;;47.78;22.42;;;;;;;2.46;48.82;99800.63;4390308;32;33304;-61
2022/03/04 00:34:14;;;;;;;47.95;23.38;;;;;;;2.00;49.39;99791.97;4392301;32;32383;-61
2022/03/04 00:36:41;;;;;;;45.75;20.98;;;;;;;1.99;48.82;99790.19;4387984;32;33714;-61
2022/03/04 00:39:11;;;;;;;40.72;20.62;;;;;;;2.77;47.49;99786.75;4390157;32;34228;-61
2022/03/04 00:41:39;;;;;;;42.45;21.20;;;;;;;2.84;46.54;99784.75;4392091;32;34218;-61
2022/03/04 00:44:06;;;;;;;39.55;20.58;;;;;;;3.54;45.68;99788.16;4391373;32;33913;-61
2022/03/04 00:46:35;;;;;;;46.10;21.42;;;;;;;3.40;45.45;99779.47;4390444;32;33081;-61
2022/03/04 00:49:03;;;;;;;46.97;21.52;;;;;;;3.41;45.24;99786.38;4389928;32;34492;-61
2022/03/04 00:51:31;;;;;;;44.95;20.88;;;;;;;3.77;44.68;99782.13;4393057;32;33422;-61
2022/03/04 00:53:59;;;;;;;40.92;21.83;;;;;;;4.18;44.08;99770.44;4391595;32;33711;-61
2022/03/04 00:56:26;;;;;;;42.85;21.73;;;;;;;3.00;46.70;99780.78;4391058;32;34813;-61
2022/03/04 00:58:54;;;;;;;40.92;21.50;;;;;;;2.52;48.62;99785.75;4374500;32;33860;-61
2022/03/04 01:01:21;;;;;;;45.25;21.40;;;;;;;2.67;48.23;99782.59;4390724;32;32923;-61
2022/03/04 01:03:49;;;;;;;37.63;19.42;;;;;;;2.75;47.84;99776.38;4392016;32;33982;-61
2022/03/04 01:06:18;;;;;;;44.50;20.95;;;;;;;2.79;47.54;99780.06;4391762;32;33698;-61
2022/03/04 01:08:46;;;;;;;42.88;21.85;;;;;;;2.95;47.34;99772.75;4391079;32;33820;-62
2022/03/04 01:11:13;;;;;;;41.35;20.15;;;;;;;2.81;47.56;99778.53;4390986;32;34150;-62
2022/03/04 01:13:41;;;;;;;43.87;21.40;;;;;;;2.56;48.17;99767.31;4391635;32;33395;-62
2022/03/04 01:16:08;;;;;;;45.38;21.85;;;;;;;2.05;50.03;99774.44;4390875;32;34592;-62
2022/03/04 01:18:36;;;;;;;44.90;21.12;;;;;;;1.87;50.53;99779.87;4391563;32;35895;-62
2022/03/04 01:21:04;;;;;;;42.88;20.58;;;;;;;2.06;50.30;99777.09;4391676;32;34219;-62
2022/03/04 01:23:31;;;;;;;44.30;20.27;;;;;;;1.94;50.16;99771.06;4390142;32;33883;-62
2022/03/04 01:25:59;;;;;;;39.63;20.52;;;;;;;1.76;50.73;99771.41;4377509;32;33774;-62
2022/03/04 01:28:27;;;;;;;43.20;21.87;;;;;;;1.85;50.70;99771.22;4392080;32;33175;-62
2022/03/04 01:30:55;;;;;;;37.72;19.52;;;;;;;1.68;50.57;99762.25;4393725;32;33437;-62
2022/03/04 01:33:23;;;;;;;43.35;19.65;;;;;;;2.12;49.54;99762.25;4394018;32;34519;-62
2022/03/04 01:35:50;;;;;;;44.60;20.30;;;;;;;2.51;48.54;99766.09;4392988;32;34499;-62
2022/03/04 01:38:18;;;;;;;41.78;20.58;;;;;;;2.67;47.74;99769.81;4393710;32;33800;-62
2022/03/04 01:40:46;;;;;;;39.05;19.75;;;;;;;3.00;46.96;99761.19;4393036;32;33494;-62
2022/03/04 01:43:13;;;;;;;39.47;19.60;;;;;;;2.73;47.38;99760.03;4393225;32;33742;-62
2022/03/04 01:45:41;;;;;;;46.00;20.95;;;;;;;2.62;47.46;99755.78;4393601;32;34751;-62
2022/03/04 01:48:08;;;;;;;39.17;19.77;;;;;;;2.43;47.93;99756.94;4392344;32;34453;-62
2022/03/04 01:50:36;;;;;;;39.95;19.15;;;;;;;2.52;48.41;99749.97;4390465;32;33603;-62
2022/03/04 01:53:03;;;;;;;38.58;19.45;;;;;;;2.72;48.39;99753.12;4394017;32;34747;-62
2022/03/04 01:55:31;;;;;;;39.90;19.85;;;;;;;3.24;47.14;99759.53;4392292;32;33840;-62
2022/03/04 01:57:59;;;;;;;39.45;19.30;;;;;;;4.48;44.64;99752.03;4396702;32;33769;-63
2022/03/04 02:00:26;;;;;;;37.17;19.30;;;;;;;4.87;44.10;99755.47;4393293;32;33404;-63
2022/03/04 02:02:57;;;;;;;39.47;20.70;;;;;;;5.24;43.22;99764.72;4393795;32;33918;-63
2022/03/04 02:05:26;;;;;;;37.55;19.85;;;;;;;4.86;43.71;99756.25;4393365;32;33820;-63
2022/03/04 02:07:54;;;;;;;36.47;18.92;;;;;;;4.90;43.30;99755.66;4394062;32;33799;-63
2022/03/04 02:10:21;;;;;;;35.53;19.65;;;;;;;4.67;44.84;99761.81;4391133;32;34289;-63
2022/03/04 02:12:49;;;;;;;48.42;21.73;;;;;;;4.55;45.37;99762.69;4393737;32;34411;-63
2022/03/04 02:15:16;;;;;;;43.80;19.75;;;;;;;4.98;44.54;99760.44;4393419;32;33957;-63
2022/03/04 02:17:44;;;;;;;38.17;18.55;;;;;;;5.04;44.47;99765.97;4393209;32;33577;-62
2022/03/04 02:20:11;;;;;;;37.05;20.42;;;;;;;5.14;44.43;99763.22;4370343;32;31804;-63
2022/03/04 02:22:39;;;;;;;32.20;17.02;;;;;;;5.04;44.80;99758.25;4379722;32;33745;-62
2022/03/04 02:25:07;;;;;;;34.90;17.42;;;;;;;4.66;47.56;99766.88;4396084;32;34754;-63
2022/03/04 02:27:34;;;;;;;40.65;18.12;;;;;;;4.58;50.42;99758.66;4393063;32;33912;-63
2022/03/04 02:30:04;;;;;;;34.53;17.35;;;;;;;4.31;52.02;99765.37;4393424;32;33529;-63
2022/03/04 02:32:31;;;;;;;34.72;17.65;;;;;;;4.88;51.45;99766.63;4400186;32;33557;-63
2022/03/04 02:35:01;;;;;;;33.17;18.30;;;;;;;4.97;51.13;99753.53;4396640;32;33994;-63
2022/03/04 02:37:29;;;;;;;33.50;17.83;;;;;;;4.95;52.17;99762.81;4393033;32;33667;-63
2022/03/04 02:39:56;;;;;;;36.83;18.33;;;;;;;5.08;52.21;99757.66;4392838;32;33450;-63
2022/03/04 02:42:24;;;;;;;36.72;18.60;;;;;;;5.34;51.71;99771.34;4399166;32;33932;-63
2022/03/04 02:44:52;;;;;;;35.97;17.67;;;;;;;5.41;51.19;99770.91;4394761;32;34646;-63
2022/03/04 02:47:19;;;;;;;32.92;18.42;;;;;;;5.44;51.23;99776.28;4392764;32;34600;-63
2022/03/04 02:49:50;;;;;;;34.47;17.33;;;;;;;5.26;51.51;99768.28;4395335;32;32691;-63
2022/03/04 02:52:17;;;;;;;33.58;18.67;;;;;;;5.57;50.71;99771.13;4391273;32;34304;-63
2022/03/04 02:54:45;;;;;;;34.40;18.85;;;;;;;5.19;51.87;99779.81;4389340;32;32344;-63
2022/03/04 02:57:12;;;;;;;36.03;18.77;;;;;;;5.51;50.84;99771.63;4377432;32;32278;-63
2022/03/04 02:59:40;;;;;;;35.42;18.35;;;;;;;5.30;51.31;99770.25;4390419;32;33474;-63
2022/03/04 03:02:08;;;;;;;35.80;18.23;;;;;;;5.09;51.94;99774.88;4391531;32;34783;-63
2022/03/04 03:04:36;;;;;;;35.08;19.02;;;;;;;5.41;51.22;99782.13;4391451;32;34451;-63
2022/03/04 03:07:03;;;;;;;35.33;19.33;;;;;;;5.31;51.47;99780.63;4392709;32;33541;-63
2022/03/04 03:09:31;;;;;;;36.08;17.80;;;;;;;5.37;51.12;99784.38;4392740;32;33445;-63
2022/03/04 03:11:59;;;;;;;41.67;21.08;;;;;;;5.13;51.97;99781.97;4393132;32;33224;-63
2022/03/04 03:14:26;;;;;;;41.47;20.75;;;;;;;4.99;52.63;99780.19;4392054;32;33612;-63
2022/03/04 03:16:53;;;;;;;40.50;21.52;;;;;;;4.87;52.66;99781.16;4393239;32;34003;-63
2022/03/04 03:19:21;;;;;;;42.55;21.42;;;;;;;5.11;52.06;99778.41;4393120;32;33403;-63
2022/03/04 03:21:48;;;;;;;40.90;21.40;;;;;;;5.19;52.03;99777.25;4392935;32;33881;-63
2022/03/04 03:24:16;;;;;;;37.38;18.50;;;;;;;5.00;52.79;99781.94;4393239;32;33707;-63
2022/03/04 03:26:43;;;;;;;35.97;19.20;;;;;;;4.98;52.89;99786.09;4392626;32;33554;-63
2022/03/04 03:29:11;;;;;;;37.05;19.58;;;;;;;4.99;53.10;99793.03;4392093;32;33511;-63
2022/03/04 03:31:38;;;;;;;33.95;18.75;;;;;;;4.98;52.83;99786.09;4393338;32;34623;-63
2022/03/04 03:34:06;;;;;;;40.00;21.15;;;;;;;5.08;52.59;99788.47;4393056;32;33838;-63
2022/03/04 03:36:33;;;;;;;36.22;20.37;;;;;;;5.14;52.29;99788.91;4393234;32;34655;-63
2022/03/04 03:39:01;;;;;;;36.03;19.58;;;;;;;5.44;51.45;99794.25;4393133;32;33606;-63
2022/03/04 03:41:29;;;;;;;36.97;18.98;;;;;;;5.28;52.15;99787.25;4392905;32;33875;-63
2022/03/04 03:43:56;;;;;;;34.75;19.27;;;;;;;5.32;52.03;99790.09;4393271;32;34689;-63
2022/03/04 03:46:24;;;;;;;32.25;17.45;;;;;;;5.60;51.01;99794.47;4393420;32;34160;-63
2022/03/04 03:48:52;;;;;;;35.75;19.45;;;;;;;5.79;50.34;99790.50;4391940;32;34319;-63
2022/03/04 03:51:19;;;;;;;35.60;19.12;;;;;;;5.65;51.14;99795.63;4392557;32;34609;-63
2022/03/04 03:53:47;;;;;;;36.13;17.87;;;;;;;5.40;51.63;99782.00;4393040;32;33453;-63
2022/03/04 03:56:14;;;;;;;34.00;19.30;;;;;;;5.40;51.56;99788.03;4392089;32;34607;-63
2022/03/04 03:58:42;;;;;;;36.58;18.95;;;;;;;5.37;51.78;99798.13;4392874;32;33382;-63
2022/03/04 04:01:09;;;;;;;39.30;19.27;;;;;;;5.50;51.64;99797.22;4392002;32;34611;-63
2022/03/04 04:03:37;;;;;;;39.20;19.40;;;;;;;5.45;51.87;99801.19;4391499;32;33747;-63
2022/03/04 04:06:04;;;;;;;36.20;18.50;;;;;;;4.92;53.83;99801.97;4390704;32;32429;-63
2022/03/04 04:08:32;;;;;;;36.55;19.33;;;;;;;4.44;55.62;99796.22;4398413;32;33425;-63
2022/03/04 04:11:00;;;;;;;39.55;19.87;;;;;;;4.78;54.74;99788.22;4391992;32;34007;-63
2022/03/04 04:13:27;;;;;;;36.40;20.25;;;;;;;5.31;53.16;99796.03;4393189;32;33973;-63
2022/03/04 04:15:55;;;;;;;35.00;18.80;;;;;;;5.46;52.58;99793.56;4391853;32;34254;-63
2022/03/04 04:18:23;;;;;;;36.85;19.30;;;;;;;5.32;52.91;99799.50;4392618;32;33363;-63
2022/03/04 04:20:51;;;;;;;41.90;19.77;;;;;;;5.42;52.39;99800.97;4392270;32;34450;-63
2022/03/04 04:23:18;;;;;;;35.50;19.15;;;;;;;5.19;53.16;99797.78;4393839;32;33766;-63
2022/03/04 04:25:46;;;;;;;41.22;20.00;;;;;;;5.18;53.17;99796.03;4392408;32;34572;-63
2022/03/04 04:28:13;;;;;;;42.62;20.62;;;;;;;5.29;52.90;99800.19;4392793;32;34368;-63
2022/03/04 04:30:41;;;;;;;39.88;19.58;;;;;;;5.38;52.42;99801.56;4391465;32;33886;-63
2022/03/04 04:33:09;;;;;;;36.33;18.95;;;;;;;4.72;54.23;99805.78;4391939;32;32788;-63
2022/03/04 04:35:36;;;;;;;39.72;19.42;;;;;;;4.92;53.64;99805.47;4391735;32;33556;-63
2022/03/04 04:38:04;;;;;;;41.10;20.00;;;;;;;4.95;53.54;99802.19;4391695;32;32668;-63
2022/03/04 04:40:32;;;;;;;41.50;19.60;;;;;;;5.55;52.08;99803.56;4391955;32;33685;-63
2022/03/04 04:42:59;;;;;;;39.88;20.15;;;;;;;5.44;51.89;99814.81;4390238;32;33990;-63
2022/03/04 04:45:27;;;;;;;34.00;19.15;;;;;;;5.46;51.53;99818.37;4391816;32;34405;-62
2022/03/04 04:47:54;;;;;;;40.15;19.95;;;;;;;5.30;51.08;99821.62;4378127;32;31836;-63
2022/03/04 04:50:22;;;;;;;39.28;19.87;;;;;;;5.10;51.38;99828.00;4391068;32;33899;-62
2022/03/04 04:52:49;;;;;;;40.78;20.10;;;;;;;5.11;51.78;99829.78;4390571;32;33927;-63
2022/03/04 04:55:17;;;;;;;39.85;20.30;;;;;;;5.46;50.81;99836.34;4392392;32;33848;-62
2022/03/04 04:57:45;;;;;;;37.53;20.08;;;;;;;5.45;51.06;99834.59;4392225;32;33446;-62
2022/03/04 05:00:12;;;;;;;39.05;20.10;;;;;;;5.17;51.84;99840.44;4391920;32;34444;-62
2022/03/04 05:02:40;;;;;;;39.63;19.98;;;;;;;4.69;53.69;99849.19;4393117;32;34068;-62
2022/03/04 05:05:08;;;;;;;39.20;20.20;;;;;;;4.37;54.79;99852.09;4393643;32;33824;-63
2022/03/04 05:07:36;;;;;;;39.20;19.02;;;;;;;4.63;53.97;99848.75;4393899;32;33660;-62
2022/03/04 05:10:04;;;;;;;40.50;19.98;;;;;;;3.68;56.29;99854.06;4393571;32;34019;-62
2022/03/04 05:12:32;;;;;;;40.00;19.87;;;;;;;2.58;61.01;99866.28;4392415;32;33202;-63
2022/03/04 05:14:59;;;;;;;42.53;20.25;;;;;;;2.40;61.06;99866.66;4393868;32;33961;-62
2022/03/04 05:17:27;;;;;;;43.00;21.87;;;;;;;2.33;61.71;99864.37;4393740;32;33931;-62
2022/03/04 05:19:54;;;;;;;45.10;21.58;;;;;;;2.80;60.24;99867.16;4393132;32;34567;-62
2022/03/04 05:22:22;;;;;;;41.65;21.40;;;;;;;2.48;61.06;99870.69;4392776;32;33756;-62
2022/03/04 05:24:49;;;;;;;47.58;22.67;;;;;;;2.16;62.50;99879.28;4393775;32;33881;-62
2022/03/04 05:27:18;;;;;;;42.00;22.25;;;;;;;1.95;63.16;99875.00;4394210;32;33446;-63
2022/03/04 05:29:45;;;;;;;40.80;20.85;;;;;;;2.03;63.32;99884.19;4393908;32;33718;-62
2022/03/04 05:32:13;;;;;;;46.03;23.67;;;;;;;1.67;64.56;99882.13;4392651;32;33830;-63
2022/03/04 05:34:43;;;;;;;51.88;25.77;;;;;;;2.06;63.42;99884.41;4393808;32;34454;-62
2022/03/04 05:37:10;;;;;;;51.70;25.05;;;;;;;1.78;63.71;99891.56;4393743;32;34062;-62
2022/03/04 05:39:38;;;;;;;64.47;27.73;;;;;;;1.51;64.66;99896.19;4392651;32;34714;-63
2022/03/04 05:42:06;;;;;;;54.78;26.98;;;;;;;1.65;64.50;99894.78;4392247;32;34828;-63
2022/03/04 05:44:33;;;;;;;49.35;23.50;;;;;;;2.46;61.86;99902.91;4393259;32;33814;-63
2022/03/04 05:47:01;;;;;;;60.78;27.73;;;;;;;2.66;60.32;99907.00;4393731;32;31895;-62
2022/03/04 05:49:28;;;;;;;60.60;29.23;;;;;;;2.24;61.24;99905.47;4393699;32;33335;-63
2022/03/04 05:51:55;;;;;;;61.65;26.92;;;;;;;2.20;61.78;99902.50;4392718;32;34080;-62
2022/03/04 05:54:24;;;;;;;78.62;34.95;;;;;;;2.10;62.29;99916.22;4366765;32;31882;-62
2022/03/04 05:56:51;;;;;;;77.72;32.53;;;;;;;2.12;62.58;99918.13;4393914;32;34195;-62
2022/03/04 05:59:19;;;;;;;57.10;26.40;;;;;;;2.88;60.34;99924.91;4380255;32;33786;-63
2022/03/04 06:01:47;;;;;;;56.72;26.05;;;;;;;2.60;60.35;99921.00;4381599;32;33354;-63
2022/03/04 06:04:15;;;;;;;55.00;25.88;;;;;;;3.13;58.83;99921.69;4393996;32;34378;-62
2022/03/04 06:06:42;;;;;;;52.92;25.90;;;;;;;3.49;57.78;99922.66;4390630;32;34116;-63
2022/03/04 06:09:10;;;;;;;46.80;23.95;;;;;;;3.58;56.68;99922.47;4379699;32;33521;-63
2022/03/04 06:11:37;;;;;;;48.85;23.83;;;;;;;2.51;60.31;99924.63;4378739;32;34017;-63
2022/03/04 06:14:06;;;;;;;49.65;23.77;;;;;;;2.98;59.28;99930.75;4392723;32;33356;-62
2022/03/04 06:16:33;;;;;;;42.28;23.25;;;;;;;3.48;57.62;99926.00;4393577;32;33556;-62
2022/03/04 06:19:01;;;;;;;47.33;25.10;;;;;;;3.12;58.79;99935.25;4393460;32;34021;-63
2022/03/04 06:21:28;;;;;;;54.40;25.37;;;;;;;3.33;57.54;99931.75;4393400;32;34500;-62
2022/03/04 06:23:56;;;;;;;52.95;27.48;;;;;;;3.21;57.87;99940.19;4395823;32;33147;-63
2022/03/04 06:26:24;;;;;;;45.42;23.38;;;;;;;2.83;58.84;99946.69;4397206;32;33534;-62
2022/03/04 06:28:51;;;;;;;43.20;22.27;;;;;;;3.14;57.81;99938.81;4393228;32;34510;-63
2022/03/04 06:31:18;;;;;;;43.90;22.33;;;;;;;2.85;57.83;99955.37;4393232;32;33988;-62
2022/03/04 06:33:47;;;;;;;46.83;22.42;;;;;;;2.65;58.18;99958.06;4377169;32;34698;-62
2022/03/04 06:36:14;;;;;;;47.88;22.55;;;;;;;2.82;57.69;99962.81;4393957;32;33628;-63
2022/03/04 06:38:43;;;;;;;45.30;21.92;;;;;;;3.06;57.33;99968.06;4394066;32;34710;-62
2022/03/04 06:41:13;;;;;;;50.42;23.83;;;;;;;3.33;56.05;99957.34;4393324;32;32477;-63
2022/03/04 06:43:41;;;;;;;42.72;21.45;;;;;;;3.53;55.38;99963.06;4397295;32;33667;-63
2022/03/04 06:46:09;;;;;;;44.95;22.48;;;;;;;3.49;55.69;99968.75;4392531;32;34274;-63
2022/03/04 06:48:37;;;;;;;43.58;22.23;;;;;;;3.29;56.42;99959.56;4395213;32;33464;-63
2022/03/04 06:51:05;;;;;;;50.67;22.45;;;;;;;3.83;55.36;99956.78;4401622;32;33886;-63
2022/03/04 06:53:33;;;;;;;46.80;23.85;;;;;;;3.72;55.49;99963.66;4394234;32;33890;-63
2022/03/04 06:56:00;;;;;;;46.85;22.58;;;;;;;4.03;54.38;99960.81;4396000;32;34391;-62
2022/03/04 06:58:28;;;;;;;42.35;22.58;;;;;;;3.40;56.20;99962.94;4393142;32;33761;-63
2022/03/04 07:00:56;;;;;;;46.75;23.02;;;;;;;3.60;56.16;99967.00;4394533;32;33888;-62
2022/03/04 07:03:24;;;;;;;46.10;23.15;;;;;;;3.88;55.18;99959.69;4393533;32;33512;-62
2022/03/04 07:05:52;;;;;;;42.03;22.02;;;;;;;3.87;55.46;99968.16;4395756;32;34239;-63
2022/03/04 07:08:19;;;;;;;45.63;22.10;;;;;;;4.48;53.91;99972.63;4383915;32;32366;-63
2022/03/04 07:10:48;;;;;;;51.70;23.50;;;;;;;4.26;54.17;99974.41;4392546;32;33936;-62
2022/03/04 07:13:16;;;;;;;47.80;23.40;;;;;;;4.48;53.94;99977.75;4375725;32;34143;-63
2022/03/04 07:15:44;;;;;;;50.17;25.12;;;;;;;4.62;53.71;99976.16;4393102;32;33465;-63
2022/03/04 07:18:13;;;;;;;49.88;25.23;;;;;;;5.57;51.74;99976.69;4393741;32;34576;-63
2022/03/04 07:20:42;;;;;;;49.13;24.98;;;;;;;5.75;51.39;99971.00;4393155;32;34008;-63
2022/03/04 07:23:09;;;;;;;46.47;24.52;;;;;;;5.47;51.42;99975.19;4393226;32;34600;-63
2022/03/04 07:25:37;;;;;;;49.97;25.15;;;;;;;5.97;51.32;99981.97;4393320;32;33510;-63
2022/03/04 07:28:05;;;;;;;53.47;26.20;;;;;;;6.37;49.87;99976.81;4393058;32;33910;-63
2022/03/04 07:30:33;;;;;;;51.17;26.58;;;;;;;6.09;50.29;99985.31;4393700;32;33823;-63
2022/03/04 07:33:02;;;;;;;54.33;26.55;;;;;;;5.82;51.05;99978.34;4392088;32;33764;-63
2022/03/04 07:35:30;;;;;;;48.87;24.90;;;;;;;5.92;51.29;99985.87;4390785;32;33230;-63
2022/03/04 07:37:58;;;;;;;46.35;24.15;;;;;;;5.69;51.91;99982.66;4394014;32;34512;-63
2022/03/04 07:40:26;;;;;;;48.87;23.50;;;;;;;5.68;52.31;99996.31;4394453;32;33757;-63
2022/03/04 07:42:53;;;;;;;47.22;24.55;;;;;;;5.44;52.60;99995.53;4394404;32;32317;-63
2022/03/04 07:45:21;;;;;;;47.38;23.73;;;;;;;6.16;50.87;99993.44;4399987;32;34157;-63
2022/03/04 07:47:49;;;;;;;48.10;25.60;;;;;;;6.34;50.46;99996.34;4397951;32;33376;-64
2022/03/04 07:50:17;;;;;;;45.35;25.27;;;;;;;6.76;49.05;99997.25;4385982;32;33720;-63
2022/03/04 07:52:48;;;;;;;46.15;23.73;;;;;;;6.38;50.19;99994.03;4392789;32;34110;-63
2022/03/04 07:55:17;;;;;;;45.33;22.80;;;;;;;6.10;50.85;100001.62;4393303;32;33142;-64
2022/03/04 07:57:44;;;;;;;43.92;22.58;;;;;;;6.37;50.08;99999.97;4389330;32;34528;-63
2022/03/04 08:00:14;;;;;;;45.78;22.87;;;;;;;5.75;52.23;100007.00;4390146;32;33047;-63
2022/03/04 08:02:42;;;;;;;42.33;24.10;;;;;;;5.79;52.81;100019.25;4378328;32;33121;-63
2022/03/04 08:05:10;;;;;;;43.55;23.65;;;;;;;5.94;52.71;100020.28;4395795;32;33916;-63
2022/03/04 08:07:38;;;;;;;43.75;23.05;;;;;;;5.75;53.52;100022.41;4397213;32;33789;-63
2022/03/04 08:10:07;;;;;;;41.22;22.30;;;;;;;5.74;53.80;100020.63;4392378;32;33702;-63
2022/03/04 08:12:36;;;;;;;38.00;21.17;;;;;;;5.89;53.59;100029.34;4392786;32;34649;-64
2022/03/04 08:15:05;;;;;;;44.60;22.60;;;;;;;5.97;53.37;100025.69;4391707;32;33436;-63
2022/03/04 08:17:33;;;;;;;39.53;22.13;;;;;;;5.90;53.76;100041.44;4389093;32;34569;-63
2022/03/04 08:20:02;;;;;;;41.65;22.52;;;;;;;5.84;54.13;100038.47;4393914;32;33855;-64
2022/03/04 08:22:29;;;;;;;40.47;21.02;;;;;;;6.35;52.75;100035.00;4391895;32;33477;-64
2022/03/04 08:24:57;;;;;;;44.55;22.08;;;;;;;5.90;54.21;100044.00;4393685;32;33573;-64
2022/03/04 08:27:25;;;;;;;41.80;22.23;;;;;;;5.89;54.05;100042.22;4399523;32;33760;-63
2022/03/04 08:29:52;;;;;;;40.78;21.52;;;;;;;6.06;53.58;100041.69;4393479;32;33903;-63
2022/03/04 08:32:23;;;;;;;43.87;22.65;;;;;;;6.08;53.54;100035.00;4392728;32;34627;-63
2022/03/04 08:34:59;;;;;;;40.10;21.95;;;;;;;6.14;53.40;100037.06;4384177;32;34113;-63
2022/03/04 08:37:27;;;;;;;39.38;22.13;;;;;;;6.53;52.17;100039.56;4387565;32;34703;-63
2022/03/04 08:39:55;;;;;;;45.08;22.42;;;;;;;6.20;53.37;100044.28;4370592;32;33734;-63
2022/03/04 08:42:23;;;;;;;43.45;22.23;;;;;;;6.06;54.07;100041.69;4369208;32;34771;-63
2022/03/04 08:44:52;;;;;;;42.00;22.17;;;;;;;6.13;54.00;100042.12;4373135;32;33299;-63
2022/03/04 08:47:20;;;;;;;43.22;22.20;;;;;;;6.47;53.11;100050.34;4357805;32;34056;-63
2022/03/04 08:49:48;;;;;;;44.30;21.05;;;;;;;6.37;53.15;100047.97;4373560;32;34612;-63
2022/03/04 08:52:16;;;;;;;40.08;22.08;;;;;;;6.03;53.95;100056.94;4389926;32;34138;-63
2022/03/04 08:54:43;;;;;;;41.37;22.35;;;;;;;6.37;53.25;100047.97;4389169;32;33814;-63
2022/03/04 08:57:12;;;;;;;44.08;23.25;;;;;;;6.72;52.37;100041.63;4391226;32;33809;-63
2022/03/04 08:59:40;;;;;;;44.13;22.77;;;;;;;6.77;52.39;100050.56;4388426;32;34569;-63
2022/03/04 09:02:08;;;;;;;40.55;21.77;;;;;;;6.90;51.98;100047.97;4389908;32;34327;-64
2022/03/04 09:04:36;;;;;;;40.22;21.15;;;;;;;6.86;52.02;100046.00;4392134;32;34274;-63
2022/03/04 09:07:06;;;;;;;37.83;21.12;;;;;;;6.69;52.45;100047.50;4395353;32;34047;-63
2022/03/04 09:09:35;;;;;;;38.17;21.12;;;;;;;7.05;51.54;100054.09;4393255;32;32976;-62
2022/03/04 09:12:02;;;;;;;39.75;21.42;;;;;;;7.52;50.11;100051.78;4391166;32;33782;-63
2022/03/04 09:14:30;;;;;;;39.08;20.77;;;;;;;7.95;48.59;100046.59;4393528;32;34256;-63
2022/03/04 09:16:58;;;;;;;36.83;20.60;;;;;;;7.28;49.65;100050.34;4380428;32;33655;-65
2022/03/04 09:19:27;;;;;;;35.00;19.37;;;;;;;7.93;47.74;100051.66;4392298;32;33907;-64
2022/03/04 09:22:14;;;;;;;42.75;20.70;;;;;;;6.55;50.93;100049.19;4389566;32;34707;-66
2022/03/04 09:24:42;;;;;;;38.30;20.67;;;;;;;5.81;53.54;100053.66;4391514;32;33353;-65
2022/03/04 09:27:10;;;;;;;39.00;20.73;;;;;;;6.63;51.13;100054.81;4390792;32;34161;-64
2022/03/04 09:29:38;;;;;;;38.63;20.05;;;;;;;5.59;53.50;100057.34;4378494;32;32426;-65
2022/03/04 09:32:06;;;;;;;45.35;22.20;;;;;;;7.14;50.38;100053.75;4366915;32;33625;-64
2022/03/04 09:34:34;;;;;;;39.33;20.33;;;;;;;6.89;50.80;100054.81;4391087;32;34100;-64
2022/03/04 09:37:01;;;;;;;38.53;21.12;;;;;;;7.24;49.38;100058.69;4390297;32;34476;-63
2022/03/04 09:39:29;;;;;;;36.75;19.05;;;;;;;5.89;52.96;100066.25;4393526;32;34660;-64
2022/03/04 09:41:56;;;;;;;35.67;18.48;;;;;;;5.47;53.56;100077.06;4395742;32;34200;-65
2022/03/04 09:44:24;;;;;;;37.67;19.17;;;;;;;6.26;50.82;100073.00;4396140;32;33613;-67
2022/03/04 09:46:53;;;;;;;36.42;18.23;;;;;;;5.11;55.17;100081.41;4391674;32;34075;-63
2022/03/04 09:49:31;;;;;;;36.50;20.05;;;;;;;5.69;52.98;100080.31;4392307;32;34008;-64
2022/03/04 09:51:59;;;;;;;41.40;21.10;;;;;;;4.77;56.33;100073.88;4395693;32;33531;-63
2022/03/04 09:54:31;;;;;;;35.05;18.35;;;;;;;6.01;53.14;100068.78;4381702;32;34357;-63
2022/03/04 09:56:59;;;;;;;37.95;19.30;;;;;;;5.53;55.87;100074.91;4399671;32;34513;-61
2022/03/04 09:59:26;;;;;;;35.70;19.42;;;;;;;4.87;56.27;100071.19;4390862;32;34597;-62
2022/03/04 10:01:56;;;;;;;40.33;20.95;;;;;;;5.80;55.12;100062.19;4400597;32;33930;-62
2022/03/04 10:04:28;;;;;;;39.60;20.65;;;;;;;6.73;52.16;100066.59;4394458;32;32698;-62
2022/03/04 10:06:55;;;;;;;40.72;20.75;;;;;;;5.05;55.77;100068.13;4379113;32;34670;-63
2022/03/04 10:09:45;;;;;;;39.28;21.85;;;;;;;5.97;54.75;100065.91;4398320;32;33849;-64
2022/03/04 10:12:15;;;;;;;40.95;22.80;;;;;;;5.59;55.69;100067.63;4394619;32;33503;-63
2022/03/04 10:15:01;;;;;;;49.55;24.17;;;;;;;5.36;56.62;100072.88;4396231;32;33317;-63
2022/03/04 10:17:37;;;;;;;45.88;23.33;;;;;;;6.18;54.40;100063.87;4379499;32;33799;-61
2022/03/04 10:20:12;;;;;;;45.63;23.43;;;;;;;6.94;52.36;100056.78;4392148;32;33969;-63
2022/03/04 10:22:45;;;;;;;41.83;23.12;;;;;;;5.31;55.78;100064.81;4394271;32;34272;-63
2022/03/04 10:25:21;;;;;;;43.10;22.75;;;;;;;5.49;56.02;100065.22;4398407;32;34154;-63
2022/03/04 10:27:49;;;;;;;49.45;24.58;;;;;;;6.13;53.95;100055.88;4396875;32;34010;-63
2022/03/04 10:30:17;;;;;;;42.65;25.37;;;;;;;5.89;55.10;100052.50;4384012;32;33691;-63
2022/03/04 10:32:45;;;;;;;42.22;24.58;;;;;;;4.85;57.29;100062.47;4392176;32;33857;-63
2022/03/04 10:35:16;;;;;;;43.17;23.35;;;;;;;5.05;57.19;100060.44;4394196;32;33504;-63
2022/03/04 10:37:54;;;;;;;46.42;23.67;;;;;;;6.18;54.02;100051.00;4392318;32;33929;-64
2022/03/04 10:40:29;;;;;;;45.88;23.58;;;;;;;6.49;52.72;100049.66;4379409;32;33804;-64
2022/03/04 10:43:05;;;;;;;48.35;25.48;;;;;;;6.32;53.79;100055.41;4393331;32;34488;-64
2022/03/04 10:45:40;;;;;;;50.47;25.73;;;;;;;6.03;54.86;100051.78;4381585;32;34369;-64
2022/03/04 10:48:10;;;;;;;53.05;29.23;;;;;;;5.81;55.47;100053.66;4369466;32;33055;-66
2022/03/04 10:50:42;;;;;;;49.50;27.65;;;;;;;5.59;56.28;100049.63;4391776;32;34014;-63
2022/03/04 10:53:21;;;;;;;53.78;27.67;;;;;;;5.79;56.35;100056.12;4377814;32;33167;-64
2022/03/04 10:55:54;;;;;;;48.03;24.83;;;;;;;5.90;56.73;100049.16;4397002;32;33507;-64
2022/03/04 10:58:40;;;;;;;50.20;27.90;;;;;;;6.12;55.93;100045.47;4390128;32;33239;-63
2022/03/04 11:01:17;;;;;;;51.60;25.80;;;;;;;5.40;57.55;100055.19;4384707;32;34451;-63
2022/03/04 11:03:45;;;;;;;48.08;24.23;;;;;;;5.53;57.85;100059.50;4380194;32;33754;-63
2022/03/04 11:06:14;;;;;;;49.78;26.17;;;;;;;6.19;55.66;100055.38;4394732;32;34129;-63
2022/03/04 11:08:43;;;;;;;53.97;26.23;;;;;;;6.20;55.01;100052.00;4378043;32;33134;-64
2022/03/04 11:11:11;;;;;;;50.38;26.37;;;;;;;5.70;57.16;100051.28;4392330;32;33581;-64
2022/03/04 11:13:39;;;;;;;46.97;24.83;;;;;;;5.19;58.20;100059.72;4393753;32;33817;-63
2022/03/04 11:16:07;;;;;;;46.53;25.05;;;;;;;5.34;57.73;100047.06;4391431;32;34312;-63
2022/03/04 11:18:35;;;;;;;50.80;25.92;;;;;;;5.90;57.01;100046.56;4377342;32;33771;-63
2022/03/04 11:21:04;;;;;;;48.92;24.92;;;;;;;4.91;59.59;100050.06;4379115;32;35505;-64
2022/03/04 11:23:34;;;;;;;47.90;24.60;;;;;;;4.65;59.61;100052.44;4398317;32;34017;-60
2022/03/04 11:26:04;;;;;;;45.40;25.17;;;;;;;5.09;59.57;100041.88;4391307;32;34557;-63
2022/03/04 11:28:41;;;;;;;46.78;23.90;;;;;;;5.48;57.64;100048.88;4379310;32;33994;-63